Anson, Texas
Current Conditions -  °F | °C
As of 10:58 PM on Wednesday 22 Oct 2014 (Local Time) from KDYS Reporting Station
Scattered Clouds Scattered Clouds  
Wind Chill: 61°   Ceiling: Unl
Heat Index: 61°   Visibility: 10mi
Dew Point: 57°   Wind: 5mph
Humidity: 88%   Direction: 200°SSW
Pressure: 30.11"   Gusts: NA
Location:  32.76°N, 99.9°W
Report Text: KDYS 230358Z AUTO 20004KT 10SM SCT070 16/14 A3011 RMK AO2 SLP168 T01600140
Loading
Personal Weather Stations






























Interactive Weather Map
Tropical Storm Tracking
New forecast layout! Learn more

10-Day Weather Forecast

Advertisements
Track Severe Weather on mobile